createdAt,value
2018-03-22T00:00:11.288Z,89.70
2018-03-22T00:02:39.630Z,89.40
2018-03-22T00:05:07.202Z,89.40
2018-03-22T00:07:34.817Z,90.60
2018-03-22T00:10:02.383Z,89.90
2018-03-22T00:12:29.962Z,90.80
2018-03-22T00:14:57.546Z,89.20
2018-03-22T00:17:25.118Z,89.00
2018-03-22T00:19:53.459Z,90.00
2018-03-22T00:22:32.997Z,90.00
2018-03-22T00:25:00.561Z,89.60
2018-03-22T00:27:28.127Z,89.90
2018-03-22T00:29:55.732Z,90.00
2018-03-22T00:32:24.054Z,89.30
2018-03-22T00:34:51.607Z,89.20
2018-03-22T00:37:19.197Z,88.70
2018-03-22T00:39:46.793Z,90.70
2018-03-22T00:42:15.123Z,90.70
2018-03-22T00:44:42.724Z,90.70
2018-03-22T00:47:11.055Z,88.80
2018-03-22T00:49:38.617Z,88.80
2018-03-22T00:52:06.240Z,90.30
2018-03-22T00:54:33.807Z,90.60
2018-03-22T00:57:01.369Z,90.40
2018-03-22T00:59:28.974Z,90.00
2018-03-22T01:01:56.549Z,90.50
2018-03-22T01:04:24.173Z,90.10
2018-03-22T01:06:51.769Z,87.50
2018-03-22T01:09:19.352Z,87.90
2018-03-22T01:11:47.687Z,88.60
2018-03-22T01:14:15.285Z,88.50
2018-03-22T01:16:43.611Z,88.40
2018-03-22T01:19:11.194Z,88.30
2018-03-22T01:24:09.282Z,87.20
2018-03-22T01:26:36.844Z,87.50
2018-03-22T01:29:04.427Z,89.50
2018-03-22T01:31:32.029Z,89.10
2018-03-22T01:33:59.591Z,87.30
2018-03-22T01:36:27.167Z,88.20
2018-03-22T01:38:54.764Z,90.00
2018-03-22T01:41:22.319Z,88.30
2018-03-22T01:43:49.894Z,88.60
2018-03-22T01:46:18.256Z,90.00
2018-03-22T01:48:45.832Z,90.00
2018-03-22T01:51:14.368Z,87.20
2018-03-22T01:53:41.990Z,87.00
2018-03-22T01:56:10.314Z,88.40
2018-03-22T01:58:37.877Z,88.40
2018-03-22T02:01:05.498Z,88.30
2018-03-22T02:03:33.844Z,90.40
2018-03-22T02:06:01.423Z,90.40
2018-03-22T02:08:29.803Z,88.70
2018-03-22T02:10:58.132Z,89.00
2018-03-22T02:13:25.696Z,89.00
2018-03-22T02:15:53.304Z,90.00
2018-03-22T02:18:21.632Z,90.00
2018-03-22T02:20:49.223Z,90.00
2018-03-22T02:23:16.808Z,89.80
2018-03-22T02:25:45.156Z,91.10
2018-03-22T02:28:12.711Z,91.10
2018-03-22T02:30:40.405Z,90.70
2018-03-22T02:33:08.740Z,90.10
2018-03-22T02:35:36.335Z,90.10
2018-03-22T02:38:03.921Z,90.50
2018-03-22T02:40:31.535Z,89.10
2018-03-22T02:42:59.063Z,90.20
2018-03-22T02:45:26.700Z,90.00
2018-03-22T02:47:55.036Z,90.10
2018-03-22T02:50:22.604Z,90.10
2018-03-22T02:52:50.190Z,89.90
2018-03-22T02:55:18.540Z,91.00
2018-03-22T02:57:46.111Z,91.00
2018-03-22T03:00:13.708Z,90.70
2018-03-22T03:02:41.269Z,91.00
2018-03-22T03:05:08.834Z,91.10
2018-03-22T03:07:36.436Z,91.50
2018-03-22T03:10:04.010Z,91.20
2018-03-22T03:12:31.557Z,91.40
2018-03-22T03:14:59.145Z,91.50
2018-03-22T03:17:27.482Z,91.20
2018-03-22T03:19:55.057Z,91.20
2018-03-22T03:22:22.665Z,92.00
2018-03-22T03:24:50.261Z,92.10
2018-03-22T03:27:17.840Z,90.60
2018-03-22T03:29:45.430Z,91.10
2018-03-22T03:32:13.780Z,90.60
2018-03-22T03:34:42.116Z,90.90
2018-03-22T03:37:09.720Z,90.90
2018-03-22T03:39:37.291Z,91.60
2018-03-22T03:42:04.864Z,91.60
2018-03-22T03:44:32.453Z,92.00
2018-03-22T03:47:00.005Z,91.70
2018-03-22T03:49:28.343Z,91.20
2018-03-22T03:51:55.937Z,91.20
2018-03-22T03:54:24.268Z,90.10
2018-03-22T03:56:51.827Z,90.40
2018-03-22T03:59:19.426Z,91.10
2018-03-22T04:01:47.755Z,89.90
2018-03-22T04:04:15.317Z,89.90
2018-03-22T04:06:42.918Z,85.90
2018-03-22T04:09:10.483Z,87.80
2018-03-22T04:11:38.062Z,87.50
2018-03-22T04:14:06.428Z,88.40
2018-03-22T04:16:34.785Z,87.90
2018-03-22T04:19:03.148Z,89.00
2018-03-22T04:21:30.735Z,89.00
2018-03-22T04:23:58.328Z,88.60
2018-03-22T04:26:26.662Z,87.90
2018-03-22T04:28:54.381Z,87.80
2018-03-22T04:31:21.958Z,86.50
2018-03-22T04:33:49.524Z,88.10
2018-03-22T04:36:17.122Z,87.20
2018-03-22T04:38:45.459Z,89.60
2018-03-22T04:41:13.031Z,89.50
2018-03-22T04:43:40.615Z,89.10
2018-03-22T04:46:08.165Z,90.00
2018-03-22T04:48:35.733Z,90.40
2018-03-22T04:51:03.343Z,90.40
2018-03-22T04:53:30.914Z,91.00
2018-03-22T04:55:58.480Z,91.00
2018-03-22T04:58:26.078Z,91.40
2018-03-22T05:00:53.649Z,89.50
2018-03-22T05:03:21.226Z,89.60
2018-03-22T05:05:49.573Z,89.80
2018-03-22T05:08:17.159Z,89.70
2018-03-22T05:10:45.499Z,90.00
2018-03-22T05:13:13.118Z,90.00
2018-03-22T05:15:40.672Z,90.50
2018-03-22T05:18:08.924Z,90.80
2018-03-22T05:20:37.288Z,90.80
2018-03-22T05:23:04.849Z,90.60
2018-03-22T05:25:32.409Z,90.00
2018-03-22T05:28:00.948Z,90.10
2018-03-22T05:30:28.507Z,90.20
2018-03-22T05:32:56.071Z,90.50
2018-03-22T05:35:23.652Z,90.30
2018-03-22T05:37:54.304Z,90.50
2018-03-22T05:40:21.870Z,89.50
2018-03-22T05:42:50.367Z,88.70
2018-03-22T05:45:17.924Z,88.70
2018-03-22T05:47:46.280Z,89.20
2018-03-22T05:50:13.876Z,89.20
2018-03-22T05:52:42.200Z,90.10
2018-03-22T05:55:09.776Z,90.10
2018-03-22T05:57:37.404Z,90.70
2018-03-22T06:00:04.997Z,90.10
2018-03-22T06:02:32.581Z,89.90
2018-03-22T06:05:00.161Z,89.60
2018-03-22T06:07:28.487Z,87.80
2018-03-22T06:09:56.046Z,87.80
2018-03-22T06:12:23.651Z,87.50
2018-03-22T06:14:51.249Z,86.80
2018-03-22T06:17:18.924Z,84.40
2018-03-22T06:19:46.504Z,83.30
2018-03-22T06:22:14.081Z,82.30
2018-03-22T06:24:41.681Z,81.40
2018-03-22T06:27:09.280Z,82.30
2018-03-22T06:29:36.837Z,80.90
2018-03-22T06:32:04.387Z,80.60
2018-03-22T06:34:32.008Z,81.20
2018-03-22T06:37:00.326Z,79.20
2018-03-22T06:39:27.901Z,79.20
2018-03-22T06:41:55.513Z,78.30
2018-03-22T06:44:23.838Z,77.10
2018-03-22T06:46:52.020Z,77.10
2018-03-22T06:49:19.635Z,77.20
2018-03-22T06:51:47.224Z,74.70
2018-03-22T06:54:14.786Z,77.90
2018-03-22T06:56:42.386Z,77.50
2018-03-22T06:59:09.955Z,75.80
2018-03-22T07:01:37.565Z,75.10
2018-03-22T07:04:05.155Z,74.70
2018-03-22T07:06:33.081Z,73.60
2018-03-22T07:09:00.644Z,70.20
2018-03-22T07:11:28.318Z,69.30
2018-03-22T07:13:55.925Z,69.50
2018-03-22T07:16:23.476Z,70.90
2018-03-22T07:18:51.083Z,68.90
2018-03-22T07:21:18.656Z,67.30
2018-03-22T07:23:46.217Z,67.70
2018-03-22T07:26:13.810Z,66.20
2018-03-22T07:28:41.359Z,64.50
2018-03-22T07:31:08.937Z,64.80
2018-03-22T07:33:36.514Z,64.00
2018-03-22T07:36:04.062Z,64.40
2018-03-22T07:38:31.620Z,64.10
2018-03-22T07:40:59.219Z,66.20
2018-03-22T07:43:44.415Z,64.80
2018-03-22T07:46:11.991Z,64.80
2018-03-22T07:48:39.591Z,66.30
2018-03-22T07:51:07.124Z,66.80
2018-03-22T07:53:34.695Z,65.30
2018-03-22T07:56:02.252Z,64.50
2018-03-22T07:58:29.827Z,60.50
2018-03-22T08:00:57.407Z,62.10
2018-03-22T08:03:24.998Z,63.30
2018-03-22T08:05:52.606Z,62.40
2018-03-22T08:08:20.943Z,57.90
2018-03-22T08:10:48.513Z,57.90
2018-03-22T08:13:16.860Z,57.30
2018-03-22T08:15:44.704Z,56.70
2018-03-22T08:18:13.065Z,54.80
2018-03-22T08:20:40.652Z,54.80
2018-03-22T08:23:08.996Z,53.40
2018-03-22T08:25:36.544Z,53.30
2018-03-22T08:28:04.094Z,52.80
2018-03-22T08:30:31.660Z,53.30
2018-03-22T08:32:59.236Z,53.70
2018-03-22T08:35:26.800Z,53.90
2018-03-22T08:37:54.402Z,52.40
2018-03-22T08:40:21.958Z,53.70
2018-03-22T08:42:50.279Z,54.10
2018-03-22T08:45:17.846Z,54.10
2018-03-22T08:47:45.419Z,55.40
2018-03-22T08:50:12.979Z,51.30
2018-03-22T08:52:40.608Z,52.20
2018-03-22T08:55:08.150Z,52.60
2018-03-22T08:57:35.704Z,53.60
2018-03-22T09:00:03.366Z,52.40
2018-03-22T09:02:30.940Z,52.70
2018-03-22T09:04:58.498Z,52.00
2018-03-22T09:07:26.061Z,51.60
2018-03-22T09:09:53.638Z,52.40
2018-03-22T09:12:21.207Z,51.10
2018-03-22T09:14:48.786Z,52.80
2018-03-22T09:17:16.323Z,51.40
2018-03-22T09:19:44.642Z,50.80
2018-03-22T09:22:12.224Z,50.80
2018-03-22T09:24:39.799Z,50.00
2018-03-22T09:27:07.361Z,50.20
2018-03-22T09:29:34.951Z,51.50
2018-03-22T09:32:03.280Z,49.10
2018-03-22T09:34:31.660Z,50.40
2018-03-22T09:37:02.670Z,50.40
2018-03-22T09:39:30.235Z,48.10
2018-03-22T09:41:57.798Z,49.10
2018-03-22T09:44:25.396Z,48.90
2018-03-22T09:46:52.944Z,51.60
2018-03-22T09:49:21.277Z,49.20
2018-03-22T09:51:48.845Z,49.20
2018-03-22T09:54:16.403Z,49.10
2018-03-22T09:56:43.983Z,52.10
2018-03-22T09:59:12.337Z,52.00
2018-03-22T10:01:39.919Z,52.00
2018-03-22T10:04:07.473Z,52.20
2018-03-22T10:06:35.059Z,54.30
2018-03-22T10:09:03.415Z,57.00
2018-03-22T10:11:30.966Z,57.00
2018-03-22T10:13:58.550Z,57.80
2018-03-22T10:16:26.888Z,58.80
2018-03-22T10:18:54.458Z,58.70
2018-03-22T10:21:22.055Z,58.90
2018-03-22T10:23:50.412Z,60.30
2018-03-22T10:26:17.990Z,60.40
2018-03-22T10:28:46.366Z,61.30
2018-03-22T10:31:14.703Z,62.50
2018-03-22T10:33:42.267Z,62.50
2018-03-22T10:36:09.863Z,62.50
2018-03-22T10:38:37.442Z,64.20
2018-03-22T10:41:05.775Z,66.30
2018-03-22T10:43:33.376Z,66.30
2018-03-22T10:46:01.738Z,65.70
2018-03-22T10:48:30.090Z,68.30
2018-03-22T10:50:57.698Z,68.30
2018-03-22T10:53:26.014Z,67.00
2018-03-22T10:55:53.586Z,67.00
2018-03-22T10:58:21.167Z,67.70
2018-03-22T11:00:54.342Z,66.00
2018-03-22T11:03:27.205Z,66.20
2018-03-22T11:05:54.792Z,66.70
2018-03-22T11:08:22.345Z,65.70
2018-03-22T11:10:49.987Z,66.70
2018-03-22T11:13:17.542Z,65.60
2018-03-22T11:15:45.103Z,66.90
2018-03-22T11:18:12.686Z,69.70
2018-03-22T11:20:40.254Z,69.60
2018-03-22T11:23:07.819Z,70.30
2018-03-22T11:25:35.412Z,67.20
2018-03-22T11:28:03.739Z,69.00
2018-03-22T11:30:31.317Z,69.10
2018-03-22T11:32:58.919Z,69.40
2018-03-22T11:35:27.234Z,70.90
2018-03-22T11:37:54.864Z,70.80
2018-03-22T11:40:23.208Z,71.10
2018-03-22T11:42:50.800Z,71.00
2018-03-22T11:45:18.341Z,70.50
2018-03-22T11:47:46.700Z,69.80
2018-03-22T11:50:14.276Z,69.80
2018-03-22T11:52:41.828Z,69.60
2018-03-22T11:55:09.422Z,70.30
2018-03-22T11:57:37.746Z,74.00
2018-03-22T12:00:05.314Z,74.00
2018-03-22T12:02:32.904Z,75.70
2018-03-22T12:05:00.466Z,77.50
2018-03-22T12:07:28.383Z,78.80
2018-03-22T12:09:55.960Z,78.90
2018-03-22T12:12:23.529Z,80.70
2018-03-22T12:14:51.088Z,81.70
2018-03-22T12:17:18.663Z,81.70
2018-03-22T12:19:46.224Z,83.10
2018-03-22T12:22:13.789Z,84.70
2018-03-22T12:24:42.175Z,86.00
2018-03-22T12:27:10.495Z,85.60
2018-03-22T12:29:40.009Z,85.60
2018-03-22T12:32:09.525Z,87.50
2018-03-22T12:34:37.080Z,87.60
2018-03-22T12:37:05.555Z,88.40
2018-03-22T12:39:33.151Z,90.00
2018-03-22T12:42:00.709Z,86.70
2018-03-22T12:44:28.267Z,88.40
2018-03-22T12:46:55.872Z,87.50
2018-03-22T12:49:23.439Z,87.20
2018-03-22T12:51:50.995Z,88.00
2018-03-22T12:54:18.575Z,89.10
2018-03-22T12:56:46.148Z,88.00
2018-03-22T12:59:13.721Z,88.10
2018-03-22T13:01:41.318Z,90.10
2018-03-22T13:04:08.894Z,89.60
2018-03-22T13:06:36.486Z,88.60
2018-03-22T13:09:04.090Z,86.80
2018-03-22T13:11:31.659Z,88.40
2018-03-22T13:13:59.988Z,90.00
2018-03-22T13:16:27.590Z,89.60
2018-03-22T13:18:55.920Z,90.30
2018-03-22T13:21:23.479Z,90.20
2018-03-22T13:23:51.078Z,91.80
2018-03-22T13:26:18.640Z,91.00
2018-03-22T13:29:09.486Z,91.80
2018-03-22T13:31:37.790Z,92.90
2018-03-22T13:34:05.379Z,92.90
2018-03-22T13:36:38.863Z,93.10
2018-03-22T13:39:06.449Z,94.70
2018-03-22T13:41:33.994Z,93.20
2018-03-22T13:44:01.560Z,92.80
2018-03-22T13:46:29.152Z,93.20
2018-03-22T13:49:05.351Z,93.30
2018-03-22T13:51:32.947Z,93.20
2018-03-22T13:54:00.502Z,91.40
2018-03-22T13:56:28.050Z,91.90
2018-03-22T13:58:55.637Z,92.90
2018-03-22T14:01:25.208Z,92.50
2018-03-22T14:03:52.781Z,91.50
2018-03-22T14:06:20.370Z,92.80
2018-03-22T14:08:47.929Z,90.40
2018-03-22T14:11:16.255Z,91.10
2018-03-22T14:13:43.886Z,91.10
2018-03-22T14:16:12.351Z,91.90
2018-03-22T14:18:40.701Z,90.60
2018-03-22T14:21:08.316Z,90.60
2018-03-22T14:23:35.874Z,90.80
2018-03-22T14:26:03.442Z,91.70
2018-03-22T14:28:43.110Z,90.70
2018-03-22T14:31:10.674Z,91.20
2018-03-22T14:33:38.224Z,91.50
2018-03-22T14:36:05.816Z,91.90
2018-03-22T14:38:33.388Z,92.20
2018-03-22T14:43:56.027Z,93.50
2018-03-22T14:46:23.608Z,94.30
2018-03-22T14:48:51.181Z,95.50
2018-03-22T14:51:18.734Z,95.80
2018-03-22T14:53:46.320Z,96.60
2018-03-22T14:56:13.907Z,96.60
2018-03-22T14:58:41.474Z,96.40
2018-03-22T15:01:09.186Z,96.90
2018-03-22T15:03:36.746Z,97.40
2018-03-22T15:06:04.330Z,97.00
2018-03-22T15:08:32.686Z,97.50
2018-03-22T15:11:00.235Z,97.50
2018-03-22T15:13:27.805Z,97.00
2018-03-22T15:15:55.395Z,97.10
2018-03-22T15:18:22.946Z,97.20
2018-03-22T15:20:51.275Z,97.00
2018-03-22T15:23:18.866Z,97.00
2018-03-22T15:25:46.417Z,97.70
2018-03-22T15:28:13.985Z,97.70
2018-03-22T15:30:41.563Z,97.60
2018-03-22T15:33:09.887Z,97.40
2018-03-22T15:35:37.447Z,97.40
2018-03-22T15:38:08.680Z,97.60
2018-03-22T15:40:36.238Z,97.30
2018-03-22T15:43:03.805Z,97.30
2018-03-22T15:45:31.394Z,97.00
2018-03-22T15:48:11.690Z,96.80
2018-03-22T15:50:40.056Z,97.40
2018-03-22T15:53:10.135Z,97.50
2018-03-22T15:55:41.267Z,97.50
2018-03-22T15:58:08.827Z,97.20
2018-03-22T16:00:36.386Z,97.10
2018-03-22T16:03:03.985Z,97.00
2018-03-22T16:05:31.542Z,97.00
2018-03-22T16:07:59.108Z,96.80
2018-03-22T16:10:26.694Z,97.00
2018-03-22T16:12:55.019Z,96.30
2018-03-22T16:15:22.571Z,96.30
2018-03-22T16:17:50.155Z,96.80
2018-03-22T16:20:17.735Z,97.00
2018-03-22T16:22:45.300Z,97.60
2018-03-22T16:25:13.648Z,98.60
2018-03-22T16:27:41.206Z,98.60
2018-03-22T16:30:08.775Z,99.30
2018-03-22T16:32:36.352Z,99.90
2018-03-22T16:35:03.891Z,99.90
2018-03-22T16:37:32.263Z,99.90
2018-03-22T16:39:59.848Z,99.90
2018-03-22T16:42:27.450Z,99.90
2018-03-22T16:44:55.785Z,99.90
2018-03-22T16:47:23.372Z,99.90
2018-03-22T16:49:51.691Z,99.90
2018-03-22T16:52:19.250Z,99.90
2018-03-22T16:54:46.826Z,99.90
2018-03-22T16:57:14.374Z,99.90
2018-03-22T16:59:41.922Z,99.90
2018-03-22T17:02:09.507Z,99.90
2018-03-22T17:04:47.852Z,99.90
2018-03-22T17:07:16.368Z,99.90
2018-03-22T17:09:43.928Z,99.90
2018-03-22T17:12:11.529Z,99.90
2018-03-22T17:14:39.115Z,99.90
2018-03-22T17:17:07.452Z,99.90
2018-03-22T17:19:41.395Z,99.90
2018-03-22T17:22:08.995Z,99.90
2018-03-22T17:24:36.601Z,99.90
2018-03-22T17:27:04.248Z,99.90
2018-03-22T17:29:31.843Z,99.90
2018-03-22T17:31:59.403Z,99.90
2018-03-22T17:34:27.013Z,99.90
2018-03-22T17:36:54.607Z,99.90
2018-03-22T17:39:27.977Z,99.90
2018-03-22T17:41:55.538Z,99.90
2018-03-22T17:44:23.096Z,99.90
2018-03-22T17:46:50.672Z,99.90
2018-03-22T17:49:18.226Z,99.90
2018-03-22T17:51:45.795Z,99.90
2018-03-22T17:54:13.376Z,99.90
2018-03-22T17:56:40.941Z,99.90
2018-03-22T17:59:08.513Z,99.90
2018-03-22T18:01:36.863Z,99.90
2018-03-22T18:04:04.423Z,99.90
2018-03-22T18:06:31.976Z,99.90
2018-03-22T18:08:59.552Z,99.90
2018-03-22T18:11:27.123Z,99.90
2018-03-22T18:13:54.687Z,99.90
2018-03-22T18:16:22.283Z,99.90
2018-03-22T18:18:49.837Z,99.90
2018-03-22T18:21:17.401Z,99.90
2018-03-22T18:23:45.087Z,99.90
2018-03-22T18:26:12.647Z,99.90
2018-03-22T18:28:41.852Z,99.90
2018-03-22T18:31:10.203Z,99.90
2018-03-22T18:33:37.775Z,99.90
2018-03-22T18:36:05.375Z,99.90
2018-03-22T18:38:32.925Z,99.90
2018-03-22T18:41:00.481Z,99.90
2018-03-22T18:43:28.028Z,99.90
2018-03-22T18:45:55.609Z,99.90
2018-03-22T18:48:23.163Z,99.90
2018-03-22T18:50:50.734Z,99.90
2018-03-22T18:53:18.313Z,99.90
2018-03-22T18:55:45.864Z,99.90
2018-03-22T18:58:13.422Z,99.90
2018-03-22T19:00:41.008Z,99.90
2018-03-22T19:03:09.329Z,99.90
2018-03-22T19:05:36.879Z,99.90
2018-03-22T19:08:11.761Z,99.90
2018-03-22T19:10:39.312Z,99.90
2018-03-22T19:13:06.877Z,99.90
2018-03-22T19:15:34.471Z,99.90
2018-03-22T19:18:02.802Z,99.90
2018-03-22T19:20:30.343Z,99.90
2018-03-22T19:22:58.952Z,99.90
2018-03-22T19:25:29.739Z,99.90
2018-03-22T19:27:57.305Z,99.90
2018-03-22T19:30:25.769Z,99.90
2018-03-22T19:32:54.078Z,99.90
2018-03-22T19:35:22.555Z,99.90
2018-03-22T19:37:50.135Z,99.90
2018-03-22T19:40:17.685Z,99.90
2018-03-22T19:42:45.231Z,99.90
2018-03-22T19:45:12.833Z,99.90
2018-03-22T19:47:40.399Z,99.90
2018-03-22T19:50:07.948Z,99.90
2018-03-22T19:52:35.519Z,99.90
2018-03-22T19:55:03.065Z,99.90
2018-03-22T19:57:33.799Z,99.90
2018-03-22T20:00:01.375Z,99.90
2018-03-22T20:02:28.999Z,99.90
2018-03-22T20:04:57.266Z,99.90
2018-03-22T20:07:24.859Z,99.90
2018-03-22T20:09:52.501Z,99.90
2018-03-22T20:12:20.052Z,99.90
2018-03-22T20:14:47.681Z,99.90
2018-03-22T20:17:15.271Z,99.90
2018-03-22T20:19:42.832Z,99.90
2018-03-22T20:22:10.411Z,99.90
2018-03-22T20:24:37.968Z,99.90
2018-03-22T20:27:05.536Z,99.90
2018-03-22T20:29:39.700Z,99.90
2018-03-22T20:32:08.030Z,99.90
2018-03-22T20:34:35.604Z,99.90
2018-03-22T20:37:03.202Z,99.90
2018-03-22T20:39:31.520Z,99.90
2018-03-22T20:41:59.068Z,99.90
2018-03-22T20:44:26.697Z,99.90
2018-03-22T20:46:54.221Z,99.90
2018-03-22T20:49:21.809Z,99.90
2018-03-22T20:51:49.382Z,99.90
2018-03-22T20:54:17.705Z,99.90
2018-03-22T20:56:45.260Z,99.90
2018-03-22T20:59:12.853Z,99.90
2018-03-22T21:01:40.401Z,99.90
2018-03-22T21:04:07.973Z,99.90
2018-03-22T21:06:35.566Z,99.90
2018-03-22T21:09:03.897Z,99.90
2018-03-22T21:11:31.461Z,99.90
2018-03-22T21:13:59.044Z,99.90
2018-03-22T21:16:26.586Z,99.90
2018-03-22T21:18:54.142Z,99.90
2018-03-22T21:21:21.727Z,99.90
2018-03-22T21:23:49.283Z,99.90
2018-03-22T21:26:16.828Z,99.90
2018-03-22T21:28:44.401Z,99.90
2018-03-22T21:31:11.964Z,99.90
2018-03-22T21:33:39.528Z,99.90
2018-03-22T21:36:07.135Z,99.90
2018-03-22T21:38:34.723Z,99.90
2018-03-22T21:41:02.307Z,99.90
2018-03-22T21:43:29.892Z,99.90
2018-03-22T21:45:58.207Z,99.90
2018-03-22T21:48:25.776Z,99.90
2018-03-22T21:50:53.364Z,99.90
2018-03-22T21:53:20.911Z,99.90
2018-03-22T21:55:48.489Z,99.90
2018-03-22T21:58:16.075Z,99.90
2018-03-22T22:00:43.650Z,99.90
2018-03-22T22:03:11.225Z,99.90
2018-03-22T22:05:38.818Z,99.90
2018-03-22T22:08:06.372Z,99.90
2018-03-22T22:10:33.914Z,99.90
2018-03-22T22:13:01.494Z,99.90
2018-03-22T22:15:30.147Z,99.90
2018-03-22T22:17:57.690Z,99.90
2018-03-22T22:20:25.264Z,99.90
2018-03-22T22:22:52.817Z,99.90
2018-03-22T22:25:20.372Z,99.90
2018-03-22T22:27:47.949Z,99.90
2018-03-22T22:30:15.500Z,99.90
2018-03-22T22:32:43.085Z,99.90
2018-03-22T22:35:10.665Z,99.90
2018-03-22T22:37:38.210Z,99.90
2018-03-22T22:40:05.758Z,99.90
2018-03-22T22:42:33.347Z,99.90
2018-03-22T22:45:00.911Z,99.90
2018-03-22T22:47:28.472Z,99.90
2018-03-22T22:49:56.063Z,99.90
2018-03-22T22:52:29.630Z,99.90
2018-03-22T22:54:57.215Z,99.90
2018-03-22T22:57:25.572Z,99.90
2018-03-22T22:59:53.141Z,99.90
2018-03-22T23:02:20.715Z,99.90
2018-03-22T23:04:49.056Z,99.90
2018-03-22T23:07:16.628Z,99.90
2018-03-22T23:09:44.210Z,99.90
2018-03-22T23:12:12.540Z,99.90
2018-03-22T23:14:40.086Z,99.90
2018-03-22T23:17:07.665Z,99.90
2018-03-22T23:19:35.217Z,99.90
2018-03-22T23:22:02.770Z,99.90
2018-03-22T23:24:30.355Z,99.90
2018-03-22T23:26:57.922Z,99.90
2018-03-22T23:29:38.283Z,99.90
2018-03-22T23:32:05.839Z,99.90
2018-03-22T23:34:33.411Z,99.90
2018-03-22T23:37:00.996Z,99.90
2018-03-22T23:39:29.318Z,99.90
2018-03-22T23:41:56.867Z,99.90
2018-03-22T23:44:24.453Z,99.90
2018-03-22T23:46:52.026Z,99.90
2018-03-22T23:49:19.599Z,99.90
2018-03-22T23:51:47.201Z,99.90
2018-03-22T23:54:14.758Z,99.90
2018-03-22T23:56:42.315Z,99.90
2018-03-22T23:59:09.894Z,99.90
